sensor_id;sensor_type;location;lat;lon;timestamp;P1;durP1;ratioP1;P2;durP2;ratioP2
44850;SDS011;30583;48.714;9.386;2023-05-29T00:01:29;9.25;;;5.80;;
44850;SDS011;30583;48.714;9.386;2023-05-29T00:03:56;9.80;;;6.47;;
44850;SDS011;30583;48.714;9.386;2023-05-29T00:06:22;8.60;;;5.72;;
44850;SDS011;30583;48.714;9.386;2023-05-29T00:08:48;11.15;;;5.97;;
44850;SDS011;30583;48.714;9.386;2023-05-29T00:11:14;11.55;;;5.95;;
44850;SDS011;30583;48.714;9.386;2023-05-29T00:13:40;12.55;;;5.60;;
44850;SDS011;30583;48.714;9.386;2023-05-29T00:16:06;9.23;;;5.00;;
44850;SDS011;30583;48.714;9.386;2023-05-29T00:18:34;11.68;;;5.25;;
44850;SDS011;30583;48.714;9.386;2023-05-29T00:21:00;9.98;;;5.70;;
44850;SDS011;30583;48.714;9.386;2023-05-29T00:23:25;8.07;;;4.72;;
44850;SDS011;30583;48.714;9.386;2023-05-29T00:25:51;10.13;;;5.22;;
44850;SDS011;30583;48.714;9.386;2023-05-29T00:28:17;10.93;;;4.82;;
44850;SDS011;30583;48.714;9.386;2023-05-29T00:30:42;10.20;;;5.80;;
44850;SDS011;30583;48.714;9.386;2023-05-29T00:33:08;8.18;;;5.55;;
44850;SDS011;30583;48.714;9.386;2023-05-29T00:35:33;9.25;;;5.30;;
44850;SDS011;30583;48.714;9.386;2023-05-29T00:37:59;11.63;;;6.18;;
44850;SDS011;30583;48.714;9.386;2023-05-29T00:40:25;9.35;;;5.00;;
44850;SDS011;30583;48.714;9.386;2023-05-29T00:42:51;9.52;;;5.18;;
44850;SDS011;30583;48.714;9.386;2023-05-29T00:45:17;8.77;;;4.78;;
44850;SDS011;30583;48.714;9.386;2023-05-29T00:47:43;13.45;;;5.97;;
44850;SDS011;30583;48.714;9.386;2023-05-29T00:50:10;11.35;;;5.60;;
44850;SDS011;30583;48.714;9.386;2023-05-29T00:52:38;9.80;;;5.00;;
44850;SDS011;30583;48.714;9.386;2023-05-29T00:55:06;11.13;;;5.13;;
44850;SDS011;30583;48.714;9.386;2023-05-29T00:57:33;10.15;;;5.25;;
44850;SDS011;30583;48.714;9.386;2023-05-29T01:00:04;10.80;;;5.32;;
44850;SDS011;30583;48.714;9.386;2023-05-29T01:02:35;10.18;;;5.72;;
44850;SDS011;30583;48.714;9.386;2023-05-29T01:05:02;10.80;;;5.47;;
44850;SDS011;30583;48.714;9.386;2023-05-29T01:07:28;10.57;;;5.82;;
44850;SDS011;30583;48.714;9.386;2023-05-29T01:09:53;8.93;;;4.95;;
44850;SDS011;30583;48.714;9.386;2023-05-29T01:12:23;8.80;;;4.97;;
44850;SDS011;30583;48.714;9.386;2023-05-29T01:21:11;10.85;;;5.35;;
44850;SDS011;30583;48.714;9.386;2023-05-29T01:29:32;8.77;;;5.18;;
44850;SDS011;30583;48.714;9.386;2023-05-29T01:31:59;8.60;;;5.30;;
44850;SDS011;30583;48.714;9.386;2023-05-29T01:34:27;9.75;;;5.90;;
44850;SDS011;30583;48.714;9.386;2023-05-29T01:36:53;9.70;;;5.88;;
44850;SDS011;30583;48.714;9.386;2023-05-29T01:39:18;10.90;;;6.53;;
44850;SDS011;30583;48.714;9.386;2023-05-29T01:41:45;8.88;;;5.32;;
44850;SDS011;30583;48.714;9.386;2023-05-29T01:44:12;13.57;;;5.90;;
44850;SDS011;30583;48.714;9.386;2023-05-29T01:46:38;7.93;;;5.13;;
44850;SDS011;30583;48.714;9.386;2023-05-29T01:49:08;9.88;;;5.60;;
44850;SDS011;30583;48.714;9.386;2023-05-29T01:51:36;7.82;;;4.50;;
44850;SDS011;30583;48.714;9.386;2023-05-29T01:54:02;11.95;;;6.30;;
44850;SDS011;30583;48.714;9.386;2023-05-29T01:56:28;11.38;;;5.88;;
44850;SDS011;30583;48.714;9.386;2023-05-29T01:58:54;10.75;;;6.15;;
44850;SDS011;30583;48.714;9.386;2023-05-29T02:01:21;9.93;;;5.78;;
44850;SDS011;30583;48.714;9.386;2023-05-29T02:03:47;10.13;;;5.90;;
44850;SDS011;30583;48.714;9.386;2023-05-29T02:06:13;9.48;;;5.60;;
44850;SDS011;30583;48.714;9.386;2023-05-29T02:08:39;11.25;;;6.45;;
44850;SDS011;30583;48.714;9.386;2023-05-29T02:11:04;11.20;;;5.88;;
44850;SDS011;30583;48.714;9.386;2023-05-29T02:13:31;13.32;;;6.57;;
44850;SDS011;30583;48.714;9.386;2023-05-29T02:15:56;14.93;;;5.60;;
44850;SDS011;30583;48.714;9.386;2023-05-29T02:18:22;12.32;;;5.53;;
44850;SDS011;30583;48.714;9.386;2023-05-29T02:20:48;10.40;;;5.65;;
44850;SDS011;30583;48.714;9.386;2023-05-29T02:23:14;10.60;;;4.82;;
44850;SDS011;30583;48.714;9.386;2023-05-29T02:25:40;11.02;;;5.30;;
44850;SDS011;30583;48.714;9.386;2023-05-29T02:28:06;8.55;;;4.93;;
44850;SDS011;30583;48.714;9.386;2023-05-29T02:30:32;9.10;;;5.60;;
44850;SDS011;30583;48.714;9.386;2023-05-29T02:32:58;8.20;;;5.15;;
44850;SDS011;30583;48.714;9.386;2023-05-29T02:35:24;8.10;;;5.55;;
44850;SDS011;30583;48.714;9.386;2023-05-29T02:37:50;11.00;;;6.10;;
44850;SDS011;30583;48.714;9.386;2023-05-29T02:40:16;9.65;;;5.35;;
44850;SDS011;30583;48.714;9.386;2023-05-29T02:42:42;11.18;;;5.47;;
44850;SDS011;30583;48.714;9.386;2023-05-29T02:45:08;10.77;;;6.50;;
44850;SDS011;30583;48.714;9.386;2023-05-29T02:47:34;9.80;;;5.60;;
44850;SDS011;30583;48.714;9.386;2023-05-29T02:50:00;11.70;;;6.55;;
44850;SDS011;30583;48.714;9.386;2023-05-29T02:52:26;14.40;;;6.43;;
44850;SDS011;30583;48.714;9.386;2023-05-29T02:54:52;12.23;;;6.93;;
44850;SDS011;30583;48.714;9.386;2023-05-29T02:57:19;13.60;;;6.00;;
44850;SDS011;30583;48.714;9.386;2023-05-29T02:59:45;13.10;;;6.32;;
44850;SDS011;30583;48.714;9.386;2023-05-29T03:02:11;13.93;;;6.07;;
44850;SDS011;30583;48.714;9.386;2023-05-29T03:04:37;10.38;;;5.78;;
44850;SDS011;30583;48.714;9.386;2023-05-29T03:07:02;12.32;;;6.00;;
44850;SDS011;30583;48.714;9.386;2023-05-29T03:09:28;11.95;;;6.18;;
44850;SDS011;30583;48.714;9.386;2023-05-29T03:11:54;11.30;;;6.47;;
44850;SDS011;30583;48.714;9.386;2023-05-29T03:14:19;10.90;;;6.32;;
44850;SDS011;30583;48.714;9.386;2023-05-29T03:16:46;9.77;;;6.57;;
44850;SDS011;30583;48.714;9.386;2023-05-29T03:19:12;11.10;;;6.38;;
44850;SDS011;30583;48.714;9.386;2023-05-29T03:21:38;10.40;;;6.43;;
44850;SDS011;30583;48.714;9.386;2023-05-29T03:24:04;10.07;;;6.40;;
44850;SDS011;30583;48.714;9.386;2023-05-29T03:26:30;12.77;;;6.50;;
44850;SDS011;30583;48.714;9.386;2023-05-29T03:28:56;11.77;;;5.85;;
44850;SDS011;30583;48.714;9.386;2023-05-29T03:31:21;12.43;;;6.03;;
44850;SDS011;30583;48.714;9.386;2023-05-29T03:33:47;10.95;;;6.43;;
44850;SDS011;30583;48.714;9.386;2023-05-29T03:36:14;12.35;;;7.07;;
44850;SDS011;30583;48.714;9.386;2023-05-29T03:38:41;12.35;;;7.68;;
44850;SDS011;30583;48.714;9.386;2023-05-29T03:41:07;12.40;;;6.30;;
44850;SDS011;30583;48.714;9.386;2023-05-29T03:43:33;14.65;;;7.95;;
44850;SDS011;30583;48.714;9.386;2023-05-29T03:45:59;12.57;;;6.70;;
44850;SDS011;30583;48.714;9.386;2023-05-29T03:48:24;11.32;;;6.93;;
44850;SDS011;30583;48.714;9.386;2023-05-29T03:50:50;12.98;;;6.55;;
44850;SDS011;30583;48.714;9.386;2023-05-29T03:53:15;10.30;;;6.47;;
44850;SDS011;30583;48.714;9.386;2023-05-29T03:55:41;9.82;;;5.95;;
44850;SDS011;30583;48.714;9.386;2023-05-29T03:58:06;14.40;;;6.53;;
44850;SDS011;30583;48.714;9.386;2023-05-29T04:00:32;11.75;;;6.72;;
44850;SDS011;30583;48.714;9.386;2023-05-29T04:02:58;10.57;;;5.90;;
44850;SDS011;30583;48.714;9.386;2023-05-29T04:05:24;11.95;;;6.93;;
44850;SDS011;30583;48.714;9.386;2023-05-29T04:07:50;9.57;;;6.05;;
44850;SDS011;30583;48.714;9.386;2023-05-29T04:10:17;10.60;;;6.70;;
44850;SDS011;30583;48.714;9.386;2023-05-29T04:12:43;11.57;;;6.80;;
44850;SDS011;30583;48.714;9.386;2023-05-29T04:15:08;11.77;;;7.00;;
44850;SDS011;30583;48.714;9.386;2023-05-29T04:17:34;11.82;;;6.85;;
44850;SDS011;30583;48.714;9.386;2023-05-29T04:20:00;9.88;;;6.68;;
44850;SDS011;30583;48.714;9.386;2023-05-29T04:22:31;11.52;;;6.25;;
44850;SDS011;30583;48.714;9.386;2023-05-29T04:24:56;14.35;;;7.43;;
44850;SDS011;30583;48.714;9.386;2023-05-29T04:27:22;10.75;;;5.72;;
44850;SDS011;30583;48.714;9.386;2023-05-29T04:29:47;14.35;;;6.38;;
44850;SDS011;30583;48.714;9.386;2023-05-29T04:32:13;14.82;;;6.50;;
44850;SDS011;30583;48.714;9.386;2023-05-29T04:34:38;11.13;;;6.47;;
44850;SDS011;30583;48.714;9.386;2023-05-29T04:37:04;13.95;;;6.95;;
44850;SDS011;30583;48.714;9.386;2023-05-29T04:39:31;14.35;;;6.30;;
44850;SDS011;30583;48.714;9.386;2023-05-29T04:41:56;13.77;;;6.40;;
44850;SDS011;30583;48.714;9.386;2023-05-29T04:44:25;12.90;;;7.03;;
44850;SDS011;30583;48.714;9.386;2023-05-29T04:46:51;11.45;;;6.38;;
44850;SDS011;30583;48.714;9.386;2023-05-29T04:49:17;11.13;;;5.95;;
44850;SDS011;30583;48.714;9.386;2023-05-29T04:51:44;11.65;;;6.45;;
44850;SDS011;30583;48.714;9.386;2023-05-29T04:54:10;12.13;;;6.80;;
44850;SDS011;30583;48.714;9.386;2023-05-29T04:56:36;10.77;;;7.30;;
44850;SDS011;30583;48.714;9.386;2023-05-29T04:59:02;14.88;;;7.40;;
44850;SDS011;30583;48.714;9.386;2023-05-29T05:01:28;14.60;;;6.65;;
44850;SDS011;30583;48.714;9.386;2023-05-29T05:03:53;13.18;;;6.78;;
44850;SDS011;30583;48.714;9.386;2023-05-29T05:06:22;14.15;;;7.18;;
44850;SDS011;30583;48.714;9.386;2023-05-29T05:08:50;12.70;;;7.30;;
44850;SDS011;30583;48.714;9.386;2023-05-29T05:11:16;13.88;;;7.88;;
44850;SDS011;30583;48.714;9.386;2023-05-29T05:13:43;10.02;;;5.93;;
44850;SDS011;30583;48.714;9.386;2023-05-29T05:16:08;11.38;;;6.50;;
44850;SDS011;30583;48.714;9.386;2023-05-29T05:18:34;9.20;;;5.72;;
44850;SDS011;30583;48.714;9.386;2023-05-29T05:21:00;11.95;;;6.30;;
44850;SDS011;30583;48.714;9.386;2023-05-29T05:23:28;11.73;;;6.40;;
44850;SDS011;30583;48.714;9.386;2023-05-29T05:25:53;10.75;;;6.10;;
44850;SDS011;30583;48.714;9.386;2023-05-29T05:28:19;11.13;;;6.07;;
44850;SDS011;30583;48.714;9.386;2023-05-29T05:30:45;10.30;;;6.13;;
44850;SDS011;30583;48.714;9.386;2023-05-29T05:33:10;12.45;;;6.30;;
44850;SDS011;30583;48.714;9.386;2023-05-29T05:35:36;13.25;;;7.40;;
44850;SDS011;30583;48.714;9.386;2023-05-29T05:38:02;14.57;;;7.18;;
44850;SDS011;30583;48.714;9.386;2023-05-29T05:40:28;16.58;;;7.57;;
44850;SDS011;30583;48.714;9.386;2023-05-29T05:42:54;10.98;;;7.22;;
44850;SDS011;30583;48.714;9.386;2023-05-29T05:45:20;12.43;;;7.22;;
44850;SDS011;30583;48.714;9.386;2023-05-29T05:47:46;11.65;;;7.10;;
44850;SDS011;30583;48.714;9.386;2023-05-29T05:50:12;12.32;;;6.85;;
44850;SDS011;30583;48.714;9.386;2023-05-29T05:52:38;11.90;;;6.55;;
44850;SDS011;30583;48.714;9.386;2023-05-29T05:55:03;13.10;;;7.30;;
44850;SDS011;30583;48.714;9.386;2023-05-29T05:57:29;13.05;;;6.75;;
44850;SDS011;30583;48.714;9.386;2023-05-29T05:59:57;11.25;;;6.70;;
44850;SDS011;30583;48.714;9.386;2023-05-29T06:02:23;11.30;;;7.15;;
44850;SDS011;30583;48.714;9.386;2023-05-29T06:04:49;23.80;;;7.80;;
44850;SDS011;30583;48.714;9.386;2023-05-29T06:07:15;11.57;;;6.75;;
44850;SDS011;30583;48.714;9.386;2023-05-29T06:09:40;11.50;;;6.70;;
44850;SDS011;30583;48.714;9.386;2023-05-29T06:12:07;13.27;;;7.00;;
44850;SDS011;30583;48.714;9.386;2023-05-29T06:14:33;9.85;;;6.65;;
44850;SDS011;30583;48.714;9.386;2023-05-29T06:16:59;12.73;;;6.70;;
44850;SDS011;30583;48.714;9.386;2023-05-29T06:19:25;15.57;;;8.05;;
44850;SDS011;30583;48.714;9.386;2023-05-29T06:21:51;18.75;;;8.23;;
44850;SDS011;30583;48.714;9.386;2023-05-29T06:24:16;13.52;;;6.65;;
44850;SDS011;30583;48.714;9.386;2023-05-29T06:26:42;10.93;;;7.18;;
44850;SDS011;30583;48.714;9.386;2023-05-29T06:29:07;12.35;;;7.10;;
44850;SDS011;30583;48.714;9.386;2023-05-29T06:31:33;11.82;;;7.15;;
44850;SDS011;30583;48.714;9.386;2023-05-29T06:33:59;10.52;;;7.03;;
44850;SDS011;30583;48.714;9.386;2023-05-29T06:36:24;11.77;;;6.72;;
44850;SDS011;30583;48.714;9.386;2023-05-29T06:38:50;10.95;;;6.60;;
44850;SDS011;30583;48.714;9.386;2023-05-29T06:41:17;9.55;;;6.05;;
44850;SDS011;30583;48.714;9.386;2023-05-29T06:43:42;14.82;;;6.90;;
44850;SDS011;30583;48.714;9.386;2023-05-29T06:46:08;12.23;;;6.45;;
44850;SDS011;30583;48.714;9.386;2023-05-29T06:48:34;11.55;;;6.15;;
44850;SDS011;30583;48.714;9.386;2023-05-29T06:51:00;38.22;;;24.95;;
44850;SDS011;30583;48.714;9.386;2023-05-29T06:53:26;21.90;;;15.82;;
44850;SDS011;30583;48.714;9.386;2023-05-29T06:55:52;17.67;;;9.38;;
44850;SDS011;30583;48.714;9.386;2023-05-29T06:58:18;11.98;;;6.45;;
44850;SDS011;30583;48.714;9.386;2023-05-29T07:00:44;11.55;;;6.95;;
44850;SDS011;30583;48.714;9.386;2023-05-29T07:03:09;13.13;;;7.05;;
44850;SDS011;30583;48.714;9.386;2023-05-29T07:05:35;10.57;;;5.70;;
44850;SDS011;30583;48.714;9.386;2023-05-29T07:08:01;10.40;;;5.60;;
44850;SDS011;30583;48.714;9.386;2023-05-29T07:10:26;12.15;;;6.45;;
44850;SDS011;30583;48.714;9.386;2023-05-29T07:12:52;10.15;;;5.90;;
44850;SDS011;30583;48.714;9.386;2023-05-29T07:15:18;10.05;;;5.88;;
44850;SDS011;30583;48.714;9.386;2023-05-29T07:17:43;10.25;;;5.85;;
44850;SDS011;30583;48.714;9.386;2023-05-29T07:20:09;11.23;;;7.03;;
44850;SDS011;30583;48.714;9.386;2023-05-29T07:22:35;10.20;;;5.55;;
44850;SDS011;30583;48.714;9.386;2023-05-29T07:25:02;26.23;;;15.20;;
44850;SDS011;30583;48.714;9.386;2023-05-29T07:27:28;18.90;;;12.20;;
44850;SDS011;30583;48.714;9.386;2023-05-29T07:29:54;11.48;;;6.30;;
44850;SDS011;30583;48.714;9.386;2023-05-29T07:32:20;9.40;;;5.60;;
44850;SDS011;30583;48.714;9.386;2023-05-29T07:34:46;13.60;;;5.57;;
44850;SDS011;30583;48.714;9.386;2023-05-29T07:37:14;10.32;;;5.35;;
44850;SDS011;30583;48.714;9.386;2023-05-29T07:39:40;9.45;;;5.45;;
44850;SDS011;30583;48.714;9.386;2023-05-29T07:42:06;9.38;;;5.10;;
44850;SDS011;30583;48.714;9.386;2023-05-29T07:44:31;8.55;;;5.13;;
44850;SDS011;30583;48.714;9.386;2023-05-29T07:46:57;8.55;;;5.20;;
44850;SDS011;30583;48.714;9.386;2023-05-29T07:49:23;10.27;;;5.18;;
44850;SDS011;30583;48.714;9.386;2023-05-29T07:51:49;9.63;;;4.97;;
44850;SDS011;30583;48.714;9.386;2023-05-29T07:54:14;8.88;;;4.50;;
44850;SDS011;30583;48.714;9.386;2023-05-29T07:56:43;9.45;;;7.00;;
44850;SDS011;30583;48.714;9.386;2023-05-29T07:59:09;11.57;;;5.90;;
44850;SDS011;30583;48.714;9.386;2023-05-29T08:01:36;11.63;;;7.20;;
44850;SDS011;30583;48.714;9.386;2023-05-29T08:04:02;21.88;;;13.43;;
44850;SDS011;30583;48.714;9.386;2023-05-29T08:06:28;17.65;;;12.23;;
44850;SDS011;30583;48.714;9.386;2023-05-29T08:08:53;10.13;;;5.43;;
44850;SDS011;30583;48.714;9.386;2023-05-29T08:11:19;9.20;;;4.70;;
44850;SDS011;30583;48.714;9.386;2023-05-29T08:13:46;8.88;;;4.00;;
44850;SDS011;30583;48.714;9.386;2023-05-29T08:16:11;8.15;;;4.85;;
44850;SDS011;30583;48.714;9.386;2023-05-29T08:18:39;8.23;;;5.10;;
44850;SDS011;30583;48.714;9.386;2023-05-29T08:21:05;11.73;;;6.18;;
44850;SDS011;30583;48.714;9.386;2023-05-29T08:23:31;12.77;;;4.70;;
44850;SDS011;30583;48.714;9.386;2023-05-29T08:25:57;8.95;;;5.88;;
44850;SDS011;30583;48.714;9.386;2023-05-29T08:28:22;12.07;;;6.90;;
44850;SDS011;30583;48.714;9.386;2023-05-29T08:30:48;7.97;;;4.43;;
44850;SDS011;30583;48.714;9.386;2023-05-29T08:33:14;8.95;;;4.43;;
44850;SDS011;30583;48.714;9.386;2023-05-29T08:35:40;8.85;;;4.80;;
44850;SDS011;30583;48.714;9.386;2023-05-29T08:38:06;7.20;;;4.30;;
44850;SDS011;30583;48.714;9.386;2023-05-29T08:40:31;6.72;;;4.50;;
44850;SDS011;30583;48.714;9.386;2023-05-29T08:42:58;9.07;;;4.82;;
44850;SDS011;30583;48.714;9.386;2023-05-29T08:45:28;9.65;;;4.90;;
44850;SDS011;30583;48.714;9.386;2023-05-29T08:47:54;7.05;;;4.70;;
44850;SDS011;30583;48.714;9.386;2023-05-29T08:50:22;8.80;;;4.78;;
44850;SDS011;30583;48.714;9.386;2023-05-29T08:52:48;9.32;;;4.95;;
44850;SDS011;30583;48.714;9.386;2023-05-29T08:55:14;7.03;;;3.90;;
44850;SDS011;30583;48.714;9.386;2023-05-29T08:57:41;9.68;;;4.60;;
44850;SDS011;30583;48.714;9.386;2023-05-29T09:00:13;7.32;;;3.20;;
44850;SDS011;30583;48.714;9.386;2023-05-29T09:02:45;12.55;;;5.78;;
44850;SDS011;30583;48.714;9.386;2023-05-29T09:05:14;7.63;;;3.83;;
44850;SDS011;30583;48.714;9.386;2023-05-29T09:07:39;10.05;;;4.75;;
44850;SDS011;30583;48.714;9.386;2023-05-29T09:10:05;7.72;;;4.13;;
44850;SDS011;30583;48.714;9.386;2023-05-29T09:12:32;8.43;;;4.22;;
44850;SDS011;30583;48.714;9.386;2023-05-29T09:14:58;8.45;;;3.92;;
44850;SDS011;30583;48.714;9.386;2023-05-29T09:17:24;7.57;;;4.00;;
44850;SDS011;30583;48.714;9.386;2023-05-29T09:19:55;9.00;;;4.40;;
44850;SDS011;30583;48.714;9.386;2023-05-29T09:22:20;7.80;;;4.05;;
44850;SDS011;30583;48.714;9.386;2023-05-29T09:24:47;7.65;;;4.18;;
44850;SDS011;30583;48.714;9.386;2023-05-29T09:27:13;7.53;;;3.80;;
44850;SDS011;30583;48.714;9.386;2023-05-29T09:29:43;7.30;;;4.70;;
44850;SDS011;30583;48.714;9.386;2023-05-29T09:32:11;9.35;;;4.53;;
44850;SDS011;30583;48.714;9.386;2023-05-29T09:34:41;7.68;;;4.50;;
44850;SDS011;30583;48.714;9.386;2023-05-29T09:37:07;8.98;;;3.80;;
44850;SDS011;30583;48.714;9.386;2023-05-29T09:39:34;8.20;;;4.35;;
44850;SDS011;30583;48.714;9.386;2023-05-29T09:42:09;9.70;;;3.90;;
44850;SDS011;30583;48.714;9.386;2023-05-29T09:44:36;6.70;;;4.13;;
44850;SDS011;30583;48.714;9.386;2023-05-29T09:47:01;8.13;;;3.72;;
44850;SDS011;30583;48.714;9.386;2023-05-29T09:49:27;10.00;;;4.10;;
44850;SDS011;30583;48.714;9.386;2023-05-29T09:51:53;6.95;;;3.60;;
44850;SDS011;30583;48.714;9.386;2023-05-29T09:54:19;6.47;;;3.90;;
44850;SDS011;30583;48.714;9.386;2023-05-29T09:56:45;7.38;;;3.78;;
44850;SDS011;30583;48.714;9.386;2023-05-29T09:59:11;12.45;;;5.00;;
44850;SDS011;30583;48.714;9.386;2023-05-29T10:01:39;9.85;;;4.45;;
44850;SDS011;30583;48.714;9.386;2023-05-29T10:04:07;7.45;;;3.47;;
44850;SDS011;30583;48.714;9.386;2023-05-29T10:06:35;7.88;;;4.00;;
44850;SDS011;30583;48.714;9.386;2023-05-29T10:09:02;8.75;;;3.55;;
44850;SDS011;30583;48.714;9.386;2023-05-29T10:11:30;6.40;;;3.38;;
44850;SDS011;30583;48.714;9.386;2023-05-29T10:13:59;10.50;;;3.72;;
44850;SDS011;30583;48.714;9.386;2023-05-29T10:16:25;10.45;;;3.85;;
44850;SDS011;30583;48.714;9.386;2023-05-29T10:18:53;8.20;;;3.67;;
44850;SDS011;30583;48.714;9.386;2023-05-29T10:21:20;7.05;;;3.90;;
44850;SDS011;30583;48.714;9.386;2023-05-29T10:23:50;7.55;;;3.65;;
44850;SDS011;30583;48.714;9.386;2023-05-29T10:26:24;7.53;;;3.40;;
44850;SDS011;30583;48.714;9.386;2023-05-29T10:29:02;7.30;;;3.78;;
44850;SDS011;30583;48.714;9.386;2023-05-29T10:31:35;7.00;;;3.58;;
44850;SDS011;30583;48.714;9.386;2023-05-29T10:34:18;7.97;;;4.28;;
44850;SDS011;30583;48.714;9.386;2023-05-29T10:37:42;8.55;;;3.42;;
44850;SDS011;30583;48.714;9.386;2023-05-29T10:40:03;9.52;;;3.80;;
44850;SDS011;30583;48.714;9.386;2023-05-29T10:42:40;7.15;;;3.58;;
44850;SDS011;30583;48.714;9.386;2023-05-29T10:45:08;8.90;;;4.38;;
44850;SDS011;30583;48.714;9.386;2023-05-29T10:47:34;6.97;;;3.90;;
44850;SDS011;30583;48.714;9.386;2023-05-29T10:50:00;8.13;;;3.63;;
44850;SDS011;30583;48.714;9.386;2023-05-29T10:52:30;7.90;;;3.53;;
44850;SDS011;30583;48.714;9.386;2023-05-29T10:54:59;5.78;;;3.15;;
44850;SDS011;30583;48.714;9.386;2023-05-29T10:57:28;6.57;;;3.80;;
44850;SDS011;30583;48.714;9.386;2023-05-29T10:59:57;6.88;;;3.30;;
44850;SDS011;30583;48.714;9.386;2023-05-29T11:02:38;6.85;;;3.58;;
44850;SDS011;30583;48.714;9.386;2023-05-29T11:05:06;6.50;;;3.50;;
44850;SDS011;30583;48.714;9.386;2023-05-29T11:07:50;7.78;;;3.60;;
44850;SDS011;30583;48.714;9.386;2023-05-29T11:13:12;6.88;;;3.30;;
44850;SDS011;30583;48.714;9.386;2023-05-29T11:16:03;6.82;;;3.22;;
44850;SDS011;30583;48.714;9.386;2023-05-29T11:18:44;6.35;;;3.40;;
44850;SDS011;30583;48.714;9.386;2023-05-29T11:21:29;8.73;;;3.60;;
44850;SDS011;30583;48.714;9.386;2023-05-29T11:24:25;6.57;;;3.20;;
44850;SDS011;30583;48.714;9.386;2023-05-29T11:29:22;8.60;;;3.45;;
44850;SDS011;30583;48.714;9.386;2023-05-29T11:31:49;6.03;;;3.45;;
44850;SDS011;30583;48.714;9.386;2023-05-29T11:34:40;7.00;;;3.83;;
44850;SDS011;30583;48.714;9.386;2023-05-29T11:37:06;5.78;;;3.30;;
44850;SDS011;30583;48.714;9.386;2023-05-29T11:39:35;7.05;;;3.17;;
44850;SDS011;30583;48.714;9.386;2023-05-29T11:42:01;7.18;;;3.10;;
44850;SDS011;30583;48.714;9.386;2023-05-29T11:44:27;12.15;;;5.95;;
44850;SDS011;30583;48.714;9.386;2023-05-29T11:47:26;6.10;;;3.70;;
44850;SDS011;30583;48.714;9.386;2023-05-29T11:52:14;6.38;;;2.90;;
44850;SDS011;30583;48.714;9.386;2023-05-29T11:54:39;6.18;;;3.13;;
44850;SDS011;30583;48.714;9.386;2023-05-29T11:57:11;7.28;;;3.58;;
44850;SDS011;30583;48.714;9.386;2023-05-29T11:59:46;6.68;;;3.00;;
44850;SDS011;30583;48.714;9.386;2023-05-29T12:02:12;6.88;;;3.28;;
44850;SDS011;30583;48.714;9.386;2023-05-29T12:04:39;6.93;;;3.30;;
44850;SDS011;30583;48.714;9.386;2023-05-29T12:07:20;9.70;;;4.13;;
44850;SDS011;30583;48.714;9.386;2023-05-29T12:09:45;6.43;;;3.38;;
44850;SDS011;30583;48.714;9.386;2023-05-29T12:12:13;7.05;;;3.20;;
44850;SDS011;30583;48.714;9.386;2023-05-29T12:14:39;8.50;;;3.05;;
44850;SDS011;30583;48.714;9.386;2023-05-29T12:17:05;5.00;;;3.25;;
44850;SDS011;30583;48.714;9.386;2023-05-29T12:19:31;6.18;;;3.17;;
44850;SDS011;30583;48.714;9.386;2023-05-29T12:21:56;6.80;;;3.88;;
44850;SDS011;30583;48.714;9.386;2023-05-29T12:24:22;7.40;;;3.17;;
44850;SDS011;30583;48.714;9.386;2023-05-29T12:26:48;7.90;;;3.45;;
44850;SDS011;30583;48.714;9.386;2023-05-29T12:29:14;6.68;;;3.10;;
44850;SDS011;30583;48.714;9.386;2023-05-29T12:31:40;7.18;;;3.13;;
44850;SDS011;30583;48.714;9.386;2023-05-29T12:34:10;6.20;;;2.90;;
44850;SDS011;30583;48.714;9.386;2023-05-29T12:36:39;6.72;;;3.17;;
44850;SDS011;30583;48.714;9.386;2023-05-29T12:39:06;6.63;;;3.58;;
44850;SDS011;30583;48.714;9.386;2023-05-29T12:41:34;4.82;;;3.10;;
44850;SDS011;30583;48.714;9.386;2023-05-29T12:44:01;8.07;;;3.42;;
44850;SDS011;30583;48.714;9.386;2023-05-29T12:46:27;6.20;;;3.22;;
44850;SDS011;30583;48.714;9.386;2023-05-29T12:49:10;6.60;;;3.20;;
44850;SDS011;30583;48.714;9.386;2023-05-29T12:51:40;7.53;;;3.60;;
44850;SDS011;30583;48.714;9.386;2023-05-29T12:54:08;5.63;;;3.28;;
44850;SDS011;30583;48.714;9.386;2023-05-29T12:56:35;5.53;;;3.67;;
44850;SDS011;30583;48.714;9.386;2023-05-29T12:59:00;5.50;;;2.97;;
44850;SDS011;30583;48.714;9.386;2023-05-29T13:01:26;5.57;;;3.10;;
44850;SDS011;30583;48.714;9.386;2023-05-29T13:03:52;7.93;;;3.13;;
44850;SDS011;30583;48.714;9.386;2023-05-29T13:06:17;5.43;;;2.95;;
44850;SDS011;30583;48.714;9.386;2023-05-29T13:08:43;6.20;;;3.63;;
44850;SDS011;30583;48.714;9.386;2023-05-29T13:11:08;6.70;;;3.38;;
44850;SDS011;30583;48.714;9.386;2023-05-29T13:13:34;5.72;;;3.40;;
44850;SDS011;30583;48.714;9.386;2023-05-29T13:16:00;6.53;;;3.40;;
44850;SDS011;30583;48.714;9.386;2023-05-29T13:18:25;5.63;;;3.30;;
44850;SDS011;30583;48.714;9.386;2023-05-29T13:20:51;5.75;;;3.05;;
44850;SDS011;30583;48.714;9.386;2023-05-29T13:23:16;5.97;;;3.47;;
44850;SDS011;30583;48.714;9.386;2023-05-29T13:25:42;7.90;;;4.38;;
44850;SDS011;30583;48.714;9.386;2023-05-29T13:28:08;8.43;;;4.22;;
44850;SDS011;30583;48.714;9.386;2023-05-29T13:30:33;5.95;;;3.33;;
44850;SDS011;30583;48.714;9.386;2023-05-29T13:32:59;6.47;;;3.33;;
44850;SDS011;30583;48.714;9.386;2023-05-29T13:35:24;8.05;;;4.18;;
44850;SDS011;30583;48.714;9.386;2023-05-29T13:37:50;6.85;;;3.22;;
44850;SDS011;30583;48.714;9.386;2023-05-29T13:40:15;5.90;;;3.30;;
44850;SDS011;30583;48.714;9.386;2023-05-29T13:42:41;4.60;;;3.10;;
44850;SDS011;30583;48.714;9.386;2023-05-29T13:45:07;6.82;;;3.45;;
44850;SDS011;30583;48.714;9.386;2023-05-29T13:47:33;9.77;;;6.25;;
44850;SDS011;30583;48.714;9.386;2023-05-29T13:50:00;6.78;;;3.05;;
44850;SDS011;30583;48.714;9.386;2023-05-29T13:52:26;5.05;;;3.10;;
44850;SDS011;30583;48.714;9.386;2023-05-29T13:54:52;5.93;;;3.10;;
44850;SDS011;30583;48.714;9.386;2023-05-29T13:57:17;6.85;;;3.75;;
44850;SDS011;30583;48.714;9.386;2023-05-29T13:59:43;6.85;;;3.50;;
44850;SDS011;30583;48.714;9.386;2023-05-29T14:02:09;7.05;;;2.97;;
44850;SDS011;30583;48.714;9.386;2023-05-29T14:04:34;6.57;;;3.42;;
44850;SDS011;30583;48.714;9.386;2023-05-29T14:07:00;8.07;;;3.63;;
44850;SDS011;30583;48.714;9.386;2023-05-29T14:09:25;6.22;;;3.20;;
44850;SDS011;30583;48.714;9.386;2023-05-29T14:11:55;6.47;;;3.65;;
44850;SDS011;30583;48.714;9.386;2023-05-29T14:14:22;5.88;;;3.80;;
44850;SDS011;30583;48.714;9.386;2023-05-29T14:16:48;7.82;;;3.55;;
44850;SDS011;30583;48.714;9.386;2023-05-29T14:19:14;7.75;;;3.78;;
44850;SDS011;30583;48.714;9.386;2023-05-29T14:21:39;9.13;;;3.63;;
44850;SDS011;30583;48.714;9.386;2023-05-29T14:24:05;6.53;;;3.58;;
44850;SDS011;30583;48.714;9.386;2023-05-29T14:26:32;8.27;;;3.60;;
44850;SDS011;30583;48.714;9.386;2023-05-29T14:28:58;5.03;;;2.85;;
44850;SDS011;30583;48.714;9.386;2023-05-29T14:31:23;6.25;;;3.28;;
44850;SDS011;30583;48.714;9.386;2023-05-29T14:33:49;8.77;;;3.58;;
44850;SDS011;30583;48.714;9.386;2023-05-29T14:36:14;6.35;;;3.38;;
44850;SDS011;30583;48.714;9.386;2023-05-29T14:38:40;8.38;;;3.65;;
44850;SDS011;30583;48.714;9.386;2023-05-29T14:41:08;12.75;;;3.50;;
44850;SDS011;30583;48.714;9.386;2023-05-29T14:43:33;5.45;;;3.58;;
44850;SDS011;30583;48.714;9.386;2023-05-29T14:45:59;7.15;;;3.70;;
44850;SDS011;30583;48.714;9.386;2023-05-29T14:48:24;6.38;;;4.13;;
44850;SDS011;30583;48.714;9.386;2023-05-29T14:50:50;5.75;;;3.50;;
44850;SDS011;30583;48.714;9.386;2023-05-29T14:53:16;6.22;;;3.35;;
44850;SDS011;30583;48.714;9.386;2023-05-29T14:55:41;6.80;;;3.80;;
44850;SDS011;30583;48.714;9.386;2023-05-29T14:58:07;5.53;;;3.15;;
44850;SDS011;30583;48.714;9.386;2023-05-29T15:00:32;6.97;;;3.40;;